sensor_id;sensor_type;location;lat;lon;timestamp;P1;durP1;ratioP1;P2;durP2;ratioP2
67867;SDS011;54672;46.096;14.470;2023-09-07T00:01:10;7.63;;;4.53;;
67867;SDS011;54672;46.096;14.470;2023-09-07T00:03:36;6.70;;;4.50;;
67867;SDS011;54672;46.096;14.470;2023-09-07T00:06:05;7.55;;;4.22;;
67867;SDS011;54672;46.096;14.470;2023-09-07T00:08:31;7.70;;;5.10;;
67867;SDS011;54672;46.096;14.470;2023-09-07T00:11:07;7.20;;;4.53;;
67867;SDS011;54672;46.096;14.470;2023-09-07T00:13:34;9.07;;;4.65;;
67867;SDS011;54672;46.096;14.470;2023-09-07T00:16:00;7.32;;;4.53;;
67867;SDS011;54672;46.096;14.470;2023-09-07T00:18:27;8.77;;;4.88;;
67867;SDS011;54672;46.096;14.470;2023-09-07T00:20:53;8.05;;;4.55;;
67867;SDS011;54672;46.096;14.470;2023-09-07T00:23:19;6.63;;;4.40;;
67867;SDS011;54672;46.096;14.470;2023-09-07T00:25:47;7.05;;;4.63;;
67867;SDS011;54672;46.096;14.470;2023-09-07T00:28:13;7.55;;;4.93;;
67867;SDS011;54672;46.096;14.470;2023-09-07T00:30:38;10.15;;;4.90;;
67867;SDS011;54672;46.096;14.470;2023-09-07T00:33:04;7.43;;;4.65;;
67867;SDS011;54672;46.096;14.470;2023-09-07T00:35:30;7.40;;;4.82;;
67867;SDS011;54672;46.096;14.470;2023-09-07T00:37:55;8.48;;;4.70;;
67867;SDS011;54672;46.096;14.470;2023-09-07T00:40:21;7.72;;;4.82;;
67867;SDS011;54672;46.096;14.470;2023-09-07T00:42:47;8.75;;;5.32;;
67867;SDS011;54672;46.096;14.470;2023-09-07T00:45:13;7.80;;;5.03;;
67867;SDS011;54672;46.096;14.470;2023-09-07T00:47:38;7.47;;;4.85;;
67867;SDS011;54672;46.096;14.470;2023-09-07T00:50:04;6.97;;;4.75;;
67867;SDS011;54672;46.096;14.470;2023-09-07T00:52:31;8.38;;;4.97;;
67867;SDS011;54672;46.096;14.470;2023-09-07T00:54:57;10.15;;;5.10;;
67867;SDS011;54672;46.096;14.470;2023-09-07T00:57:23;8.52;;;4.85;;
67867;SDS011;54672;46.096;14.470;2023-09-07T00:59:49;8.40;;;5.32;;
67867;SDS011;54672;46.096;14.470;2023-09-07T01:02:15;10.15;;;5.53;;
67867;SDS011;54672;46.096;14.470;2023-09-07T01:04:40;7.93;;;5.05;;
67867;SDS011;54672;46.096;14.470;2023-09-07T01:07:14;7.05;;;4.97;;
67867;SDS011;54672;46.096;14.470;2023-09-07T01:10:04;10.27;;;5.20;;
67867;SDS011;54672;46.096;14.470;2023-09-07T01:12:31;7.28;;;4.68;;
67867;SDS011;54672;46.096;14.470;2023-09-07T01:14:57;9.80;;;5.53;;
67867;SDS011;54672;46.096;14.470;2023-09-07T01:17:23;8.38;;;5.47;;
67867;SDS011;54672;46.096;14.470;2023-09-07T01:19:49;9.30;;;4.90;;
67867;SDS011;54672;46.096;14.470;2023-09-07T01:22:16;11.63;;;5.22;;
67867;SDS011;54672;46.096;14.470;2023-09-07T01:24:48;7.28;;;4.63;;
67867;SDS011;54672;46.096;14.470;2023-09-07T01:27:16;8.82;;;5.18;;
67867;SDS011;54672;46.096;14.470;2023-09-07T01:29:42;7.88;;;5.03;;
67867;SDS011;54672;46.096;14.470;2023-09-07T01:32:07;9.40;;;5.22;;
67867;SDS011;54672;46.096;14.470;2023-09-07T01:34:35;11.02;;;5.25;;
67867;SDS011;54672;46.096;14.470;2023-09-07T01:37:00;8.90;;;5.60;;
67867;SDS011;54672;46.096;14.470;2023-09-07T01:39:26;9.98;;;5.78;;
67867;SDS011;54672;46.096;14.470;2023-09-07T01:41:51;10.15;;;5.40;;
67867;SDS011;54672;46.096;14.470;2023-09-07T01:44:17;9.15;;;5.07;;
67867;SDS011;54672;46.096;14.470;2023-09-07T01:46:42;8.98;;;5.43;;
67867;SDS011;54672;46.096;14.470;2023-09-07T01:49:07;9.68;;;5.13;;
67867;SDS011;54672;46.096;14.470;2023-09-07T01:51:33;6.53;;;4.57;;
67867;SDS011;54672;46.096;14.470;2023-09-07T01:53:59;7.47;;;4.88;;
67867;SDS011;54672;46.096;14.470;2023-09-07T01:56:25;7.57;;;5.07;;
67867;SDS011;54672;46.096;14.470;2023-09-07T01:58:50;7.93;;;4.70;;
67867;SDS011;54672;46.096;14.470;2023-09-07T02:01:26;9.35;;;4.93;;
67867;SDS011;54672;46.096;14.470;2023-09-07T02:03:55;8.60;;;5.22;;
67867;SDS011;54672;46.096;14.470;2023-09-07T02:06:21;7.85;;;5.00;;
67867;SDS011;54672;46.096;14.470;2023-09-07T02:08:47;9.38;;;5.30;;
67867;SDS011;54672;46.096;14.470;2023-09-07T02:11:12;10.32;;;5.57;;
67867;SDS011;54672;46.096;14.470;2023-09-07T02:13:41;11.43;;;6.35;;
67867;SDS011;54672;46.096;14.470;2023-09-07T02:16:07;8.02;;;5.55;;
67867;SDS011;54672;46.096;14.470;2023-09-07T02:18:32;9.73;;;6.45;;
67867;SDS011;54672;46.096;14.470;2023-09-07T02:21:01;10.13;;;6.15;;
67867;SDS011;54672;46.096;14.470;2023-09-07T02:23:31;6.93;;;5.75;;
67867;SDS011;54672;46.096;14.470;2023-09-07T02:25:57;11.32;;;7.45;;
67867;SDS011;54672;46.096;14.470;2023-09-07T02:28:23;13.07;;;6.85;;
67867;SDS011;54672;46.096;14.470;2023-09-07T02:30:51;12.13;;;6.88;;
67867;SDS011;54672;46.096;14.470;2023-09-07T02:33:17;11.27;;;7.38;;
67867;SDS011;54672;46.096;14.470;2023-09-07T02:35:43;16.23;;;7.10;;
67867;SDS011;54672;46.096;14.470;2023-09-07T02:38:08;14.02;;;7.68;;
67867;SDS011;54672;46.096;14.470;2023-09-07T02:40:39;11.65;;;7.50;;
67867;SDS011;54672;46.096;14.470;2023-09-07T02:43:06;10.85;;;6.55;;
67867;SDS011;54672;46.096;14.470;2023-09-07T02:45:31;10.73;;;7.03;;
67867;SDS011;54672;46.096;14.470;2023-09-07T02:47:57;11.10;;;7.10;;
67867;SDS011;54672;46.096;14.470;2023-09-07T02:50:22;13.02;;;7.70;;
67867;SDS011;54672;46.096;14.470;2023-09-07T02:52:48;10.57;;;6.68;;
67867;SDS011;54672;46.096;14.470;2023-09-07T02:55:13;17.98;;;7.60;;
67867;SDS011;54672;46.096;14.470;2023-09-07T02:57:38;10.65;;;7.00;;
67867;SDS011;54672;46.096;14.470;2023-09-07T03:00:04;12.05;;;7.30;;
67867;SDS011;54672;46.096;14.470;2023-09-07T03:02:35;8.82;;;5.45;;
67867;SDS011;54672;46.096;14.470;2023-09-07T03:05:03;9.60;;;5.90;;
67867;SDS011;54672;46.096;14.470;2023-09-07T03:07:32;9.45;;;5.90;;
67867;SDS011;54672;46.096;14.470;2023-09-07T03:09:58;9.73;;;6.28;;
67867;SDS011;54672;46.096;14.470;2023-09-07T03:12:23;9.27;;;6.30;;
67867;SDS011;54672;46.096;14.470;2023-09-07T03:14:49;9.52;;;6.10;;
67867;SDS011;54672;46.096;14.470;2023-09-07T03:17:15;10.70;;;6.38;;
67867;SDS011;54672;46.096;14.470;2023-09-07T03:19:41;13.13;;;6.32;;
67867;SDS011;54672;46.096;14.470;2023-09-07T03:22:07;13.20;;;6.30;;
67867;SDS011;54672;46.096;14.470;2023-09-07T03:24:33;12.15;;;6.75;;
67867;SDS011;54672;46.096;14.470;2023-09-07T03:26:59;10.90;;;7.03;;
67867;SDS011;54672;46.096;14.470;2023-09-07T03:29:25;10.77;;;6.35;;
67867;SDS011;54672;46.096;14.470;2023-09-07T03:31:50;11.75;;;6.65;;
67867;SDS011;54672;46.096;14.470;2023-09-07T03:34:15;12.20;;;7.22;;
67867;SDS011;54672;46.096;14.470;2023-09-07T03:36:41;12.15;;;7.05;;
67867;SDS011;54672;46.096;14.470;2023-09-07T03:39:06;11.70;;;7.47;;
67867;SDS011;54672;46.096;14.470;2023-09-07T03:41:33;12.60;;;7.68;;
67867;SDS011;54672;46.096;14.470;2023-09-07T03:43:59;12.13;;;8.05;;
67867;SDS011;54672;46.096;14.470;2023-09-07T03:46:25;15.80;;;7.70;;
67867;SDS011;54672;46.096;14.470;2023-09-07T03:48:51;13.68;;;7.55;;
67867;SDS011;54672;46.096;14.470;2023-09-07T03:51:16;19.08;;;8.30;;
67867;SDS011;54672;46.096;14.470;2023-09-07T03:53:42;12.35;;;7.57;;
67867;SDS011;54672;46.096;14.470;2023-09-07T03:56:08;13.02;;;8.00;;
67867;SDS011;54672;46.096;14.470;2023-09-07T03:58:33;12.50;;;7.43;;
67867;SDS011;54672;46.096;14.470;2023-09-07T04:00:59;13.98;;;7.75;;
67867;SDS011;54672;46.096;14.470;2023-09-07T04:03:25;15.43;;;8.57;;
67867;SDS011;54672;46.096;14.470;2023-09-07T04:05:50;14.18;;;8.85;;
67867;SDS011;54672;46.096;14.470;2023-09-07T04:08:16;11.43;;;8.25;;
67867;SDS011;54672;46.096;14.470;2023-09-07T04:10:41;13.18;;;7.78;;
67867;SDS011;54672;46.096;14.470;2023-09-07T04:13:07;15.05;;;8.10;;
67867;SDS011;54672;46.096;14.470;2023-09-07T04:15:42;14.30;;;7.60;;
67867;SDS011;54672;46.096;14.470;2023-09-07T04:18:09;18.08;;;8.00;;
67867;SDS011;54672;46.096;14.470;2023-09-07T04:20:37;11.85;;;7.65;;
67867;SDS011;54672;46.096;14.470;2023-09-07T04:23:03;15.95;;;8.05;;
67867;SDS011;54672;46.096;14.470;2023-09-07T04:25:28;12.15;;;7.50;;
67867;SDS011;54672;46.096;14.470;2023-09-07T04:27:54;14.73;;;8.77;;
67867;SDS011;54672;46.096;14.470;2023-09-07T04:30:21;16.48;;;8.60;;
67867;SDS011;54672;46.096;14.470;2023-09-07T04:32:47;14.38;;;8.27;;
67867;SDS011;54672;46.096;14.470;2023-09-07T04:35:13;15.13;;;8.55;;
67867;SDS011;54672;46.096;14.470;2023-09-07T04:37:38;13.65;;;8.02;;
67867;SDS011;54672;46.096;14.470;2023-09-07T04:40:07;16.00;;;8.07;;
67867;SDS011;54672;46.096;14.470;2023-09-07T04:42:33;13.07;;;8.00;;
67867;SDS011;54672;46.096;14.470;2023-09-07T04:44:58;12.55;;;7.50;;
67867;SDS011;54672;46.096;14.470;2023-09-07T04:47:23;11.02;;;7.18;;
67867;SDS011;54672;46.096;14.470;2023-09-07T04:49:49;13.38;;;7.22;;
67867;SDS011;54672;46.096;14.470;2023-09-07T04:52:16;10.45;;;6.53;;
67867;SDS011;54672;46.096;14.470;2023-09-07T04:54:41;10.48;;;6.53;;
67867;SDS011;54672;46.096;14.470;2023-09-07T04:57:07;11.93;;;6.95;;
67867;SDS011;54672;46.096;14.470;2023-09-07T04:59:33;9.75;;;6.25;;
67867;SDS011;54672;46.096;14.470;2023-09-07T05:01:59;11.32;;;7.38;;
67867;SDS011;54672;46.096;14.470;2023-09-07T05:04:26;14.32;;;6.88;;
67867;SDS011;54672;46.096;14.470;2023-09-07T05:06:52;9.63;;;5.85;;
67867;SDS011;54672;46.096;14.470;2023-09-07T05:09:17;8.32;;;6.22;;
67867;SDS011;54672;46.096;14.470;2023-09-07T05:11:42;7.80;;;5.75;;
67867;SDS011;54672;46.096;14.470;2023-09-07T05:14:08;10.70;;;5.57;;
67867;SDS011;54672;46.096;14.470;2023-09-07T05:16:33;12.13;;;6.00;;
67867;SDS011;54672;46.096;14.470;2023-09-07T05:18:59;10.48;;;6.00;;
67867;SDS011;54672;46.096;14.470;2023-09-07T05:21:24;16.73;;;6.03;;
67867;SDS011;54672;46.096;14.470;2023-09-07T05:23:49;8.90;;;5.70;;
67867;SDS011;54672;46.096;14.470;2023-09-07T05:26:20;7.65;;;5.75;;
67867;SDS011;54672;46.096;14.470;2023-09-07T05:28:46;9.98;;;5.95;;
67867;SDS011;54672;46.096;14.470;2023-09-07T05:31:11;9.70;;;5.85;;
67867;SDS011;54672;46.096;14.470;2023-09-07T05:33:37;9.05;;;5.88;;
67867;SDS011;54672;46.096;14.470;2023-09-07T05:36:02;8.23;;;5.50;;
67867;SDS011;54672;46.096;14.470;2023-09-07T05:38:28;10.88;;;5.85;;
67867;SDS011;54672;46.096;14.470;2023-09-07T05:40:53;8.55;;;5.82;;
67867;SDS011;54672;46.096;14.470;2023-09-07T05:43:19;9.55;;;5.65;;
67867;SDS011;54672;46.096;14.470;2023-09-07T05:45:46;10.48;;;5.82;;
67867;SDS011;54672;46.096;14.470;2023-09-07T05:48:11;8.40;;;5.25;;
67867;SDS011;54672;46.096;14.470;2023-09-07T05:50:37;11.43;;;5.65;;
67867;SDS011;54672;46.096;14.470;2023-09-07T05:53:03;12.60;;;6.13;;
67867;SDS011;54672;46.096;14.470;2023-09-07T05:55:29;9.90;;;6.10;;
67867;SDS011;54672;46.096;14.470;2023-09-07T05:57:56;15.35;;;5.60;;
67867;SDS011;54672;46.096;14.470;2023-09-07T06:00:22;9.95;;;5.90;;
67867;SDS011;54672;46.096;14.470;2023-09-07T06:02:48;15.13;;;5.82;;
67867;SDS011;54672;46.096;14.470;2023-09-07T06:05:14;13.75;;;5.80;;
67867;SDS011;54672;46.096;14.470;2023-09-07T06:07:40;9.25;;;5.22;;
67867;SDS011;54672;46.096;14.470;2023-09-07T06:10:05;9.23;;;5.60;;
67867;SDS011;54672;46.096;14.470;2023-09-07T06:12:32;7.93;;;5.40;;
67867;SDS011;54672;46.096;14.470;2023-09-07T06:14:59;6.57;;;5.15;;
67867;SDS011;54672;46.096;14.470;2023-09-07T06:17:25;9.82;;;5.47;;
67867;SDS011;54672;46.096;14.470;2023-09-07T06:19:51;6.70;;;5.22;;
67867;SDS011;54672;46.096;14.470;2023-09-07T06:22:16;8.25;;;5.85;;
67867;SDS011;54672;46.096;14.470;2023-09-07T06:24:42;8.25;;;4.95;;
67867;SDS011;54672;46.096;14.470;2023-09-07T06:27:07;12.90;;;6.68;;
67867;SDS011;54672;46.096;14.470;2023-09-07T06:29:33;8.43;;;4.97;;
67867;SDS011;54672;46.096;14.470;2023-09-07T06:31:58;6.97;;;5.00;;
67867;SDS011;54672;46.096;14.470;2023-09-07T06:34:23;6.55;;;5.35;;
67867;SDS011;54672;46.096;14.470;2023-09-07T06:36:50;8.70;;;5.38;;
67867;SDS011;54672;46.096;14.470;2023-09-07T06:39:15;9.52;;;5.20;;
67867;SDS011;54672;46.096;14.470;2023-09-07T06:41:41;9.63;;;4.38;;
67867;SDS011;54672;46.096;14.470;2023-09-07T06:44:07;9.02;;;5.00;;
67867;SDS011;54672;46.096;14.470;2023-09-07T06:46:32;8.18;;;4.60;;
67867;SDS011;54672;46.096;14.470;2023-09-07T06:48:57;10.18;;;4.72;;
67867;SDS011;54672;46.096;14.470;2023-09-07T06:51:23;11.93;;;4.50;;
67867;SDS011;54672;46.096;14.470;2023-09-07T06:53:48;10.48;;;4.88;;
67867;SDS011;54672;46.096;14.470;2023-09-07T06:56:15;10.70;;;4.32;;
67867;SDS011;54672;46.096;14.470;2023-09-07T06:58:40;10.43;;;4.60;;
67867;SDS011;54672;46.096;14.470;2023-09-07T07:01:06;11.32;;;4.50;;
67867;SDS011;54672;46.096;14.470;2023-09-07T07:03:32;10.13;;;4.38;;
67867;SDS011;54672;46.096;14.470;2023-09-07T07:05:59;4.95;;;3.72;;
67867;SDS011;54672;46.096;14.470;2023-09-07T07:08:24;7.07;;;4.20;;
67867;SDS011;54672;46.096;14.470;2023-09-07T07:10:50;9.18;;;4.68;;
67867;SDS011;54672;46.096;14.470;2023-09-07T07:13:15;6.57;;;3.95;;
67867;SDS011;54672;46.096;14.470;2023-09-07T07:15:41;6.00;;;4.30;;
67867;SDS011;54672;46.096;14.470;2023-09-07T07:18:07;4.50;;;3.78;;
67867;SDS011;54672;46.096;14.470;2023-09-07T07:20:36;4.93;;;3.83;;
67867;SDS011;54672;46.096;14.470;2023-09-07T07:23:05;7.70;;;4.10;;
67867;SDS011;54672;46.096;14.470;2023-09-07T07:25:31;5.50;;;3.65;;
67867;SDS011;54672;46.096;14.470;2023-09-07T07:27:58;6.07;;;3.90;;
67867;SDS011;54672;46.096;14.470;2023-09-07T07:30:27;5.22;;;3.60;;
67867;SDS011;54672;46.096;14.470;2023-09-07T07:32:54;5.28;;;4.05;;
67867;SDS011;54672;46.096;14.470;2023-09-07T07:35:20;6.80;;;4.22;;
67867;SDS011;54672;46.096;14.470;2023-09-07T07:37:46;6.60;;;3.85;;
67867;SDS011;54672;46.096;14.470;2023-09-07T07:40:11;5.30;;;3.78;;
67867;SDS011;54672;46.096;14.470;2023-09-07T07:42:37;6.88;;;4.03;;
67867;SDS011;54672;46.096;14.470;2023-09-07T07:45:02;5.78;;;3.70;;
67867;SDS011;54672;46.096;14.470;2023-09-07T07:47:28;7.63;;;3.90;;
67867;SDS011;54672;46.096;14.470;2023-09-07T07:49:53;6.93;;;4.05;;
67867;SDS011;54672;46.096;14.470;2023-09-07T07:52:18;8.45;;;3.60;;
67867;SDS011;54672;46.096;14.470;2023-09-07T07:54:44;7.60;;;3.40;;
67867;SDS011;54672;46.096;14.470;2023-09-07T07:57:09;8.02;;;3.90;;
67867;SDS011;54672;46.096;14.470;2023-09-07T07:59:35;6.90;;;3.90;;
67867;SDS011;54672;46.096;14.470;2023-09-07T08:02:01;6.13;;;3.80;;
67867;SDS011;54672;46.096;14.470;2023-09-07T08:04:26;5.65;;;3.83;;
67867;SDS011;54672;46.096;14.470;2023-09-07T08:06:53;6.05;;;3.60;;
67867;SDS011;54672;46.096;14.470;2023-09-07T08:09:23;6.47;;;4.20;;
67867;SDS011;54672;46.096;14.470;2023-09-07T08:11:48;5.45;;;3.63;;
67867;SDS011;54672;46.096;14.470;2023-09-07T08:14:14;5.97;;;3.60;;
67867;SDS011;54672;46.096;14.470;2023-09-07T08:16:39;5.97;;;3.65;;
67867;SDS011;54672;46.096;14.470;2023-09-07T08:19:05;6.72;;;3.58;;
67867;SDS011;54672;46.096;14.470;2023-09-07T08:21:30;5.95;;;3.97;;
67867;SDS011;54672;46.096;14.470;2023-09-07T08:23:56;8.45;;;3.83;;
67867;SDS011;54672;46.096;14.470;2023-09-07T08:26:21;7.38;;;3.80;;
67867;SDS011;54672;46.096;14.470;2023-09-07T08:28:46;7.32;;;3.50;;
67867;SDS011;54672;46.096;14.470;2023-09-07T08:31:12;5.13;;;3.67;;
67867;SDS011;54672;46.096;14.470;2023-09-07T08:33:39;5.20;;;3.83;;
67867;SDS011;54672;46.096;14.470;2023-09-07T08:36:05;4.90;;;3.55;;
67867;SDS011;54672;46.096;14.470;2023-09-07T08:38:31;8.52;;;3.80;;
67867;SDS011;54672;46.096;14.470;2023-09-07T08:41:00;7.38;;;3.97;;
67867;SDS011;54672;46.096;14.470;2023-09-07T08:43:28;6.68;;;3.83;;
67867;SDS011;54672;46.096;14.470;2023-09-07T08:46:04;5.75;;;3.80;;
67867;SDS011;54672;46.096;14.470;2023-09-07T08:48:39;8.30;;;3.72;;
67867;SDS011;54672;46.096;14.470;2023-09-07T08:51:07;4.82;;;3.60;;
67867;SDS011;54672;46.096;14.470;2023-09-07T08:53:34;5.32;;;3.67;;
67867;SDS011;54672;46.096;14.470;2023-09-07T08:56:01;6.00;;;3.53;;
67867;SDS011;54672;46.096;14.470;2023-09-07T08:58:28;6.97;;;3.60;;
67867;SDS011;54672;46.096;14.470;2023-09-07T09:00:54;8.05;;;3.80;;
67867;SDS011;54672;46.096;14.470;2023-09-07T09:03:22;7.20;;;3.85;;
67867;SDS011;54672;46.096;14.470;2023-09-07T09:05:48;6.68;;;3.70;;
67867;SDS011;54672;46.096;14.470;2023-09-07T09:08:15;8.02;;;3.95;;
67867;SDS011;54672;46.096;14.470;2023-09-07T09:10:45;7.30;;;3.65;;
67867;SDS011;54672;46.096;14.470;2023-09-07T09:13:11;10.88;;;3.97;;
67867;SDS011;54672;46.096;14.470;2023-09-07T09:15:37;4.78;;;3.40;;
67867;SDS011;54672;46.096;14.470;2023-09-07T09:18:12;4.85;;;3.80;;
67867;SDS011;54672;46.096;14.470;2023-09-07T09:20:38;6.45;;;3.60;;
67867;SDS011;54672;46.096;14.470;2023-09-07T09:23:04;6.90;;;3.55;;
67867;SDS011;54672;46.096;14.470;2023-09-07T09:25:30;5.97;;;3.60;;
67867;SDS011;54672;46.096;14.470;2023-09-07T09:27:56;4.75;;;3.38;;
67867;SDS011;54672;46.096;14.470;2023-09-07T09:30:22;6.53;;;3.53;;
67867;SDS011;54672;46.096;14.470;2023-09-07T09:32:48;5.28;;;3.13;;
67867;SDS011;54672;46.096;14.470;2023-09-07T09:35:16;5.90;;;3.05;;
67867;SDS011;54672;46.096;14.470;2023-09-07T09:37:46;4.18;;;3.10;;
67867;SDS011;54672;46.096;14.470;2023-09-07T09:40:14;4.60;;;2.97;;
67867;SDS011;54672;46.096;14.470;2023-09-07T09:42:43;4.93;;;2.97;;
67867;SDS011;54672;46.096;14.470;2023-09-07T09:45:10;4.72;;;3.10;;
67867;SDS011;54672;46.096;14.470;2023-09-07T09:47:40;4.93;;;2.63;;
67867;SDS011;54672;46.096;14.470;2023-09-07T09:50:10;4.40;;;2.70;;
67867;SDS011;54672;46.096;14.470;2023-09-07T09:52:36;5.90;;;2.50;;
67867;SDS011;54672;46.096;14.470;2023-09-07T09:55:06;4.30;;;3.00;;
67867;SDS011;54672;46.096;14.470;2023-09-07T09:57:38;3.83;;;3.00;;
67867;SDS011;54672;46.096;14.470;2023-09-07T10:00:06;3.53;;;2.60;;
67867;SDS011;54672;46.096;14.470;2023-09-07T10:02:42;4.28;;;2.70;;
67867;SDS011;54672;46.096;14.470;2023-09-07T10:05:09;3.75;;;2.85;;
67867;SDS011;54672;46.096;14.470;2023-09-07T10:07:43;4.53;;;2.72;;
67867;SDS011;54672;46.096;14.470;2023-09-07T10:10:12;3.72;;;2.60;;
67867;SDS011;54672;46.096;14.470;2023-09-07T10:12:43;5.15;;;3.03;;
67867;SDS011;54672;46.096;14.470;2023-09-07T10:17:47;3.38;;;2.55;;
67867;SDS011;54672;46.096;14.470;2023-09-07T10:20:15;5.15;;;2.80;;
67867;SDS011;54672;46.096;14.470;2023-09-07T10:22:42;3.70;;;2.75;;
67867;SDS011;54672;46.096;14.470;2023-09-07T10:25:21;4.88;;;2.80;;
67867;SDS011;54672;46.096;14.470;2023-09-07T10:27:48;4.07;;;2.70;;
67867;SDS011;54672;46.096;14.470;2023-09-07T10:30:14;3.70;;;2.72;;
67867;SDS011;54672;46.096;14.470;2023-09-07T10:32:44;5.00;;;2.65;;
67867;SDS011;54672;46.096;14.470;2023-09-07T10:35:16;4.82;;;3.10;;
67867;SDS011;54672;46.096;14.470;2023-09-07T10:37:44;4.43;;;2.70;;
67867;SDS011;54672;46.096;14.470;2023-09-07T10:40:11;4.57;;;2.58;;
67867;SDS011;54672;46.096;14.470;2023-09-07T10:42:39;4.65;;;2.55;;
67867;SDS011;54672;46.096;14.470;2023-09-07T10:45:08;4.50;;;2.83;;
67867;SDS011;54672;46.096;14.470;2023-09-07T10:47:43;3.83;;;2.92;;
67867;SDS011;54672;46.096;14.470;2023-09-07T10:50:11;3.78;;;2.70;;
67867;SDS011;54672;46.096;14.470;2023-09-07T10:52:38;4.20;;;2.45;;
67867;SDS011;54672;46.096;14.470;2023-09-07T10:55:05;5.32;;;3.00;;
67867;SDS011;54672;46.096;14.470;2023-09-07T10:57:31;5.90;;;2.78;;
67867;SDS011;54672;46.096;14.470;2023-09-07T10:59:56;3.80;;;2.53;;
67867;SDS011;54672;46.096;14.470;2023-09-07T11:02:22;3.65;;;2.90;;
67867;SDS011;54672;46.096;14.470;2023-09-07T11:04:47;5.53;;;2.67;;
67867;SDS011;54672;46.096;14.470;2023-09-07T11:07:13;3.72;;;2.60;;
67867;SDS011;54672;46.096;14.470;2023-09-07T11:09:42;3.88;;;2.53;;
67867;SDS011;54672;46.096;14.470;2023-09-07T11:12:08;12.38;;;3.17;;
67867;SDS011;54672;46.096;14.470;2023-09-07T11:14:38;7.32;;;2.90;;
67867;SDS011;54672;46.096;14.470;2023-09-07T11:17:03;5.53;;;2.92;;
67867;SDS011;54672;46.096;14.470;2023-09-07T11:19:32;4.72;;;2.67;;
67867;SDS011;54672;46.096;14.470;2023-09-07T11:21:59;4.70;;;2.75;;
67867;SDS011;54672;46.096;14.470;2023-09-07T11:24:24;6.32;;;3.50;;
67867;SDS011;54672;46.096;14.470;2023-09-07T11:26:51;5.32;;;3.50;;
67867;SDS011;54672;46.096;14.470;2023-09-07T11:29:17;4.22;;;3.05;;
67867;SDS011;54672;46.096;14.470;2023-09-07T11:31:46;5.05;;;3.10;;
67867;SDS011;54672;46.096;14.470;2023-09-07T11:34:12;4.13;;;3.00;;
67867;SDS011;54672;46.096;14.470;2023-09-07T11:36:39;4.45;;;2.85;;
67867;SDS011;54672;46.096;14.470;2023-09-07T11:39:05;3.95;;;2.90;;
67867;SDS011;54672;46.096;14.470;2023-09-07T11:41:37;4.32;;;3.03;;
67867;SDS011;54672;46.096;14.470;2023-09-07T11:44:04;5.15;;;3.50;;
67867;SDS011;54672;46.096;14.470;2023-09-07T11:46:29;7.85;;;3.30;;
67867;SDS011;54672;46.096;14.470;2023-09-07T11:48:55;4.28;;;3.55;;
67867;SDS011;54672;46.096;14.470;2023-09-07T11:51:21;4.05;;;2.92;;
67867;SDS011;54672;46.096;14.470;2023-09-07T11:53:46;4.55;;;3.25;;
67867;SDS011;54672;46.096;14.470;2023-09-07T11:56:12;5.85;;;3.03;;
67867;SDS011;54672;46.096;14.470;2023-09-07T11:58:37;5.35;;;3.38;;
67867;SDS011;54672;46.096;14.470;2023-09-07T12:01:03;5.38;;;3.10;;
67867;SDS011;54672;46.096;14.470;2023-09-07T12:03:29;4.22;;;3.00;;
67867;SDS011;54672;46.096;14.470;2023-09-07T12:05:55;5.15;;;3.30;;
67867;SDS011;54672;46.096;14.470;2023-09-07T12:08:20;4.72;;;3.22;;
67867;SDS011;54672;46.096;14.470;2023-09-07T12:10:46;4.10;;;3.33;;
67867;SDS011;54672;46.096;14.470;2023-09-07T12:13:12;4.35;;;2.85;;
67867;SDS011;54672;46.096;14.470;2023-09-07T12:15:37;5.60;;;3.40;;
67867;SDS011;54672;46.096;14.470;2023-09-07T12:18:03;14.68;;;4.40;;
67867;SDS011;54672;46.096;14.470;2023-09-07T12:20:28;6.68;;;3.47;;
67867;SDS011;54672;46.096;14.470;2023-09-07T12:22:54;4.95;;;3.25;;
67867;SDS011;54672;46.096;14.470;2023-09-07T12:25:19;4.78;;;3.47;;
67867;SDS011;54672;46.096;14.470;2023-09-07T12:27:45;6.75;;;3.60;;
67867;SDS011;54672;46.096;14.470;2023-09-07T12:30:12;5.55;;;3.30;;
67867;SDS011;54672;46.096;14.470;2023-09-07T12:32:38;5.10;;;3.35;;
67867;SDS011;54672;46.096;14.470;2023-09-07T12:35:05;6.90;;;3.55;;
67867;SDS011;54672;46.096;14.470;2023-09-07T12:37:33;5.47;;;2.97;;
67867;SDS011;54672;46.096;14.470;2023-09-07T12:40:03;10.20;;;3.92;;
67867;SDS011;54672;46.096;14.470;2023-09-07T12:42:38;6.20;;;3.25;;
67867;SDS011;54672;46.096;14.470;2023-09-07T12:45:11;5.88;;;3.22;;
67867;SDS011;54672;46.096;14.470;2023-09-07T12:47:38;6.95;;;3.42;;
67867;SDS011;54672;46.096;14.470;2023-09-07T12:50:04;4.72;;;3.30;;
67867;SDS011;54672;46.096;14.470;2023-09-07T12:52:30;6.75;;;3.60;;
67867;SDS011;54672;46.096;14.470;2023-09-07T12:54:56;7.47;;;3.50;;
67867;SDS011;54672;46.096;14.470;2023-09-07T12:57:21;6.30;;;3.22;;
67867;SDS011;54672;46.096;14.470;2023-09-07T12:59:47;3.45;;;2.90;;
67867;SDS011;54672;46.096;14.470;2023-09-07T13:02:12;4.65;;;3.60;;
67867;SDS011;54672;46.096;14.470;2023-09-07T13:04:38;4.90;;;3.00;;
67867;SDS011;54672;46.096;14.470;2023-09-07T13:07:03;5.00;;;3.50;;
67867;SDS011;54672;46.096;14.470;2023-09-07T13:09:29;5.50;;;3.55;;
67867;SDS011;54672;46.096;14.470;2023-09-07T13:11:54;4.13;;;3.22;;
67867;SDS011;54672;46.096;14.470;2023-09-07T13:14:19;4.40;;;3.30;;
67867;SDS011;54672;46.096;14.470;2023-09-07T13:16:45;4.60;;;3.15;;
67867;SDS011;54672;46.096;14.470;2023-09-07T13:19:10;7.18;;;3.30;;
67867;SDS011;54672;46.096;14.470;2023-09-07T13:21:36;4.97;;;3.30;;
67867;SDS011;54672;46.096;14.470;2023-09-07T13:24:02;8.88;;;3.88;;
67867;SDS011;54672;46.096;14.470;2023-09-07T13:26:28;7.63;;;3.58;;
67867;SDS011;54672;46.096;14.470;2023-09-07T13:28:53;5.43;;;3.53;;
67867;SDS011;54672;46.096;14.470;2023-09-07T13:31:19;5.70;;;3.38;;
67867;SDS011;54672;46.096;14.470;2023-09-07T13:33:44;8.57;;;3.45;;
67867;SDS011;54672;46.096;14.470;2023-09-07T13:36:10;6.07;;;3.75;;
67867;SDS011;54672;46.096;14.470;2023-09-07T13:38:36;4.28;;;3.08;;
67867;SDS011;54672;46.096;14.470;2023-09-07T13:41:01;6.75;;;3.90;;
67867;SDS011;54672;46.096;14.470;2023-09-07T13:43:27;5.32;;;3.20;;
67867;SDS011;54672;46.096;14.470;2023-09-07T13:45:52;5.68;;;3.72;;
67867;SDS011;54672;46.096;14.470;2023-09-07T13:48:18;5.07;;;3.20;;
67867;SDS011;54672;46.096;14.470;2023-09-07T13:50:43;6.72;;;3.60;;
67867;SDS011;54672;46.096;14.470;2023-09-07T13:53:09;5.28;;;3.45;;
67867;SDS011;54672;46.096;14.470;2023-09-07T13:55:34;5.13;;;3.47;;
67867;SDS011;54672;46.096;14.470;2023-09-07T13:58:00;3.83;;;2.90;;
67867;SDS011;54672;46.096;14.470;2023-09-07T14:00:26;4.95;;;3.20;;
67867;SDS011;54672;46.096;14.470;2023-09-07T14:02:51;4.13;;;2.90;;
67867;SDS011;54672;46.096;14.470;2023-09-07T14:05:17;3.95;;;3.28;;
67867;SDS011;54672;46.096;14.470;2023-09-07T14:07:43;4.38;;;3.50;;
67867;SDS011;54672;46.096;14.470;2023-09-07T14:10:09;6.03;;;3.60;;
67867;SDS011;54672;46.096;14.470;2023-09-07T14:12:34;4.60;;;3.30;;
67867;SDS011;54672;46.096;14.470;2023-09-07T14:15:00;5.72;;;3.25;;
67867;SDS011;54672;46.096;14.470;2023-09-07T14:17:25;5.55;;;3.15;;
67867;SDS011;54672;46.096;14.470;2023-09-07T14:19:50;6.15;;;3.10;;
67867;SDS011;54672;46.096;14.470;2023-09-07T14:22:16;6.97;;;3.30;;
67867;SDS011;54672;46.096;14.470;2023-09-07T14:24:41;4.28;;;3.33;;
67867;SDS011;54672;46.096;14.470;2023-09-07T14:27:07;5.30;;;3.30;;
67867;SDS011;54672;46.096;14.470;2023-09-07T14:29:34;5.60;;;3.60;;